createdAt,value
2022-11-21T07:17:19.771Z,35.55
2022-11-21T08:02:11.215Z,28.98
2022-11-21T08:06:12.278Z,28.67
2022-11-21T08:09:18.363Z,33.72
2022-11-21T08:11:54.183Z,29.73
2022-11-21T08:54:29.599Z,37.65
2022-11-21T08:57:08.653Z,36.22
2022-11-21T09:00:24.797Z,32.53
2022-11-21T09:06:57.209Z,31.65
2022-11-21T09:09:25.557Z,31.85
2022-11-21T09:11:53.123Z,32.58
2022-11-21T09:14:38.303Z,40.92
2022-11-21T09:17:23.631Z,37.70
2022-11-21T09:19:52.767Z,35.75
2022-11-21T09:22:19.588Z,39.53
2022-11-21T09:24:47.049Z,39.25
2022-11-21T09:27:13.967Z,39.13
2022-11-21T09:29:48.107Z,39.95
2022-11-21T09:32:21.006Z,43.53
2022-11-21T09:34:47.740Z,41.80
2022-11-21T09:37:21.848Z,39.70
2022-11-21T09:39:56.262Z,48.20
2022-11-21T09:42:44.154Z,32.90
2022-11-21T09:45:20.101Z,40.28
2022-11-21T09:47:50.635Z,40.50
2022-11-21T09:50:32.927Z,42.83
2022-11-21T09:53:08.660Z,34.78
2022-11-21T09:55:37.369Z,38.05
2022-11-21T09:58:21.636Z,41.40
2022-11-21T10:00:53.310Z,41.50
2022-11-21T10:03:22.942Z,33.00
2022-11-21T10:06:25.470Z,46.47
2022-11-21T10:09:27.743Z,36.85
2022-11-21T10:14:52.820Z,38.67
2022-11-21T10:18:08.638Z,36.55
2022-11-21T10:21:16.954Z,36.42
2022-11-21T10:24:21.293Z,38.15
2022-11-21T10:27:02.465Z,35.85
2022-11-21T10:29:41.951Z,33.80
2022-11-21T10:32:22.119Z,35.60
2022-11-21T10:34:51.050Z,37.33
2022-11-21T10:37:40.422Z,45.50
2022-11-21T10:40:32.289Z,36.03
2022-11-21T10:43:45.618Z,34.28
2022-11-21T10:46:12.075Z,35.30
2022-11-21T10:48:38.966Z,34.35
2022-11-21T10:51:39.694Z,36.75
2022-11-21T10:54:27.195Z,35.35
2022-11-21T10:56:56.826Z,56.30
2022-11-21T10:59:30.883Z,35.83
2022-11-21T11:02:13.138Z,31.90
2022-11-21T11:04:47.448Z,33.85
2022-11-21T11:07:31.209Z,37.05
2022-11-21T11:10:27.685Z,34.85
2022-11-21T11:13:38.725Z,38.33
2022-11-21T11:16:11.533Z,35.72
2022-11-21T11:18:47.225Z,41.85
2022-11-21T11:21:18.028Z,37.60
2022-11-21T11:23:45.500Z,35.58
2022-11-21T11:26:23.159Z,33.72
2022-11-21T11:28:50.002Z,35.47
2022-11-21T11:31:17.333Z,36.58
2022-11-21T11:33:55.732Z,35.38
2022-11-21T11:36:37.850Z,33.90
2022-11-21T11:39:21.871Z,28.85
2022-11-21T11:42:36.505Z,35.20
2022-11-21T11:48:02.549Z,31.05
2022-11-21T11:50:38.498Z,31.67
2022-11-21T11:53:23.219Z,36.55
2022-11-21T11:56:16.975Z,33.03
2022-11-21T11:58:57.695Z,35.05
2022-11-21T12:01:44.324Z,35.08
2022-11-21T12:04:17.006Z,39.45
2022-11-21T12:09:34.810Z,32.03
2022-11-21T12:12:23.541Z,29.92
2022-11-21T12:15:09.025Z,33.28
2022-11-21T12:18:22.185Z,31.92
2022-11-21T12:21:02.897Z,30.20
2022-11-21T12:23:52.598Z,23.98
2022-11-21T12:26:47.118Z,30.55
2022-11-21T12:29:35.228Z,33.03
2022-11-21T12:32:37.927Z,27.08
2022-11-21T12:35:33.273Z,25.52
2022-11-21T12:38:39.441Z,25.80
2022-11-21T12:41:37.950Z,25.92
2022-11-21T12:44:25.940Z,25.00
2022-11-21T12:47:10.074Z,25.55
2022-11-21T12:50:26.128Z,21.25
2022-11-21T12:53:32.034Z,22.02
2022-11-21T12:56:09.009Z,23.23
2022-11-21T12:58:42.779Z,22.85
2022-11-21T13:01:27.509Z,24.30
2022-11-21T13:04:09.629Z,20.58
2022-11-21T13:06:43.274Z,17.90
2022-11-21T13:09:15.040Z,19.13
2022-11-21T13:12:08.087Z,20.45
2022-11-21T13:14:37.511Z,17.58
2022-11-21T13:18:02.158Z,20.08
2022-11-21T13:20:39.871Z,18.05
2022-11-21T13:23:36.531Z,19.08
2022-11-21T13:26:23.605Z,19.15
2022-11-21T13:28:50.825Z,16.20
2022-11-21T13:31:31.612Z,15.70
2022-11-21T13:33:58.999Z,11.65
2022-11-21T13:36:28.762Z,13.23
2022-11-21T13:38:55.254Z,13.02
2022-11-21T13:41:52.897Z,11.38
2022-11-21T13:44:40.839Z,12.40
2022-11-21T13:47:25.774Z,11.93
2022-11-21T13:50:16.709Z,15.88
2022-11-21T13:53:22.241Z,15.40
2022-11-21T13:55:55.688Z,15.25
2022-11-21T13:58:37.640Z,14.73
2022-11-21T14:01:18.717Z,14.00
2022-11-21T14:03:51.400Z,10.73
2022-11-21T14:06:38.055Z,10.48
2022-11-21T14:09:13.567Z,16.13
2022-11-21T14:11:49.966Z,12.45
2022-11-21T14:14:38.367Z,14.80
2022-11-21T14:17:26.844Z,13.98
2022-11-21T14:19:58.597Z,16.02
2022-11-21T14:22:38.728Z,14.65
2022-11-21T14:25:17.158Z,14.80
2022-11-21T14:27:48.144Z,13.85
2022-11-21T14:32:56.529Z,14.50
2022-11-21T14:35:24.109Z,15.95
2022-11-21T14:37:51.717Z,14.45
2022-11-21T14:40:23.331Z,17.20
2022-11-21T14:42:50.354Z,15.88
2022-11-21T14:45:19.795Z,16.10
2022-11-21T14:47:50.751Z,15.82
2022-11-21T14:52:57.435Z,12.10
2022-11-21T14:55:30.599Z,13.38
2022-11-21T14:57:59.424Z,14.27
2022-11-21T15:00:57.922Z,15.60
2022-11-21T15:03:25.090Z,16.60
2022-11-21T15:06:04.617Z,14.70
2022-11-21T15:09:05.969Z,16.92
2022-11-21T15:11:23.568Z,15.80
2022-11-21T15:14:15.617Z,12.73
2022-11-21T15:16:47.869Z,15.70
2022-11-21T15:19:28.988Z,10.55
2022-11-21T15:21:59.481Z,16.00
2022-11-21T15:24:56.499Z,16.13
2022-11-21T15:27:30.068Z,14.32
2022-11-21T15:30:15.057Z,19.10
2022-11-21T15:33:03.239Z,20.20
2022-11-21T15:35:38.832Z,16.88
2022-11-21T15:38:26.407Z,15.68
2022-11-21T15:41:09.658Z,15.98
2022-11-21T15:43:43.675Z,15.57
2022-11-21T15:46:21.351Z,17.70
2022-11-21T15:48:55.865Z,21.85
2022-11-21T15:54:22.271Z,16.65
2022-11-21T15:56:48.950Z,20.52
2022-11-21T15:59:16.054Z,16.00
2022-11-21T16:01:43.030Z,19.08
2022-11-21T16:04:12.692Z,21.77
2022-11-21T16:06:39.467Z,16.20
2022-11-21T16:09:06.100Z,13.40
2022-11-21T16:11:37.334Z,13.70
2022-11-21T16:14:05.820Z,14.57
2022-11-21T16:16:38.494Z,15.93
2022-11-21T16:19:13.379Z,15.60
2022-11-21T16:21:40.413Z,13.40
2022-11-21T16:24:07.761Z,14.55
2022-11-21T16:26:34.401Z,13.93
2022-11-21T16:29:03.911Z,14.82
2022-11-21T16:31:34.280Z,13.13
2022-11-21T16:34:01.032Z,16.70
2022-11-21T16:36:32.430Z,15.60
2022-11-21T16:39:07.629Z,16.55
2022-11-21T16:41:35.896Z,16.90
2022-11-21T16:44:02.474Z,21.85
2022-11-21T16:46:29.185Z,19.90
2022-11-21T16:49:01.584Z,17.10
2022-11-21T16:51:28.535Z,22.33
2022-11-21T16:53:56.953Z,24.63
2022-11-21T16:56:23.736Z,24.52
2022-11-21T16:58:50.335Z,22.42
2022-11-21T17:01:19.781Z,22.25
2022-11-21T17:03:48.301Z,23.02
2022-11-21T17:06:27.310Z,36.05
2022-11-21T17:08:54.325Z,29.65
2022-11-21T17:11:23.353Z,23.88
2022-11-21T17:13:51.295Z,17.48
2022-11-21T17:16:20.154Z,30.63
2022-11-21T17:18:47.608Z,26.60
2022-11-21T17:21:16.298Z,19.08
2022-11-21T17:23:48.180Z,30.98
2022-11-21T17:26:17.962Z,18.45
2022-11-21T17:28:46.133Z,18.42
2022-11-21T17:31:15.097Z,30.90
2022-11-21T17:33:42.612Z,29.58
2022-11-21T17:36:14.054Z,19.90
2022-11-21T17:38:40.704Z,28.50
2022-11-21T17:41:10.505Z,17.50
2022-11-21T17:43:37.401Z,15.43
2022-11-21T17:46:09.645Z,21.15
2022-11-21T17:48:37.470Z,18.48
2022-11-21T17:51:11.881Z,19.45
2022-11-21T17:53:41.593Z,18.73
2022-11-21T17:56:11.939Z,36.03
2022-11-21T17:58:38.489Z,19.27
2022-11-21T18:01:07.147Z,14.25
2022-11-21T18:03:33.891Z,19.75
2022-11-21T18:06:08.879Z,12.13
2022-11-21T18:08:38.637Z,26.90
2022-11-21T18:11:06.781Z,21.70
2022-11-21T18:13:34.704Z,17.42
2022-11-21T18:16:04.493Z,16.48
2022-11-21T18:18:34.968Z,18.00
2022-11-21T18:21:03.026Z,34.03
2022-11-21T18:23:29.537Z,15.02
2022-11-21T18:25:56.019Z,27.25
2022-11-21T18:28:22.691Z,23.08
2022-11-21T18:30:49.205Z,20.15
2022-11-21T18:33:18.817Z,19.58
2022-11-21T18:35:46.922Z,14.70
2022-11-21T18:38:40.226Z,18.52
2022-11-21T18:41:04.546Z,15.07
2022-11-21T18:43:31.192Z,13.40
2022-11-21T18:46:05.470Z,15.25
2022-11-21T18:49:00.146Z,15.00
2022-11-21T18:51:29.618Z,14.68
2022-11-21T18:53:58.922Z,15.32
2022-11-21T18:56:26.845Z,17.65
2022-11-21T18:58:58.331Z,14.88
2022-11-21T19:01:27.776Z,13.55
2022-11-21T19:03:55.160Z,10.52
2022-11-21T19:06:23.621Z,14.32
2022-11-21T19:08:54.922Z,15.60
2022-11-21T19:11:24.643Z,15.55
2022-11-21T19:13:52.329Z,14.88
2022-11-21T19:16:21.469Z,15.93
2022-11-21T19:19:05.340Z,15.10
2022-11-21T19:21:39.684Z,13.95
2022-11-21T19:24:07.684Z,14.38
2022-11-21T19:26:34.344Z,12.98
2022-11-21T19:29:00.888Z,12.68
2022-11-21T19:31:27.930Z,13.27
2022-11-21T19:33:54.449Z,12.95
2022-11-21T19:36:23.022Z,11.98
2022-11-21T19:38:51.110Z,12.98
2022-11-21T19:41:22.159Z,11.90
2022-11-21T19:43:50.920Z,11.63
2022-11-21T19:46:22.708Z,14.73
2022-11-21T19:48:52.967Z,17.15
2022-11-21T19:51:21.381Z,11.55
2022-11-21T19:53:48.713Z,16.60
2022-11-21T19:56:34.669Z,14.07
2022-11-21T19:59:01.175Z,13.40
2022-11-21T20:01:29.811Z,20.48
2022-11-21T20:03:59.475Z,11.57
2022-11-21T20:06:36.993Z,13.80
2022-11-21T20:09:09.495Z,15.35
2022-11-21T20:11:39.291Z,13.10
2022-11-21T20:14:09.685Z,15.45
2022-11-21T20:16:41.615Z,15.23
2022-11-21T20:19:10.736Z,17.50
2022-11-21T20:21:41.466Z,15.93
2022-11-21T20:24:08.381Z,16.75
2022-11-21T20:26:36.679Z,13.07
2022-11-21T20:29:04.226Z,21.25
2022-11-21T20:31:37.564Z,13.48
2022-11-21T20:34:12.496Z,13.95
2022-11-21T20:36:40.056Z,19.13
2022-11-21T20:39:16.318Z,12.60
2022-11-21T20:41:43.412Z,15.40
2022-11-21T20:44:57.028Z,14.50
2022-11-21T20:47:00.469Z,20.40
2022-11-21T20:49:27.258Z,19.83
2022-11-21T20:54:40.532Z,14.73
2022-11-21T20:57:13.128Z,13.20
2022-11-21T20:59:44.303Z,14.25
2022-11-21T21:02:14.060Z,14.40
2022-11-21T21:04:41.398Z,10.80
2022-11-21T21:07:08.038Z,19.08
2022-11-21T21:09:34.675Z,14.98
2022-11-21T21:12:01.149Z,13.02
2022-11-21T21:14:27.726Z,17.73
2022-11-21T21:16:54.464Z,14.43
2022-11-21T21:19:21.807Z,15.05
2022-11-21T21:21:49.158Z,13.10
2022-11-21T21:24:16.015Z,15.48
2022-11-21T21:26:46.151Z,12.73
2022-11-21T21:29:18.374Z,13.65
2022-11-21T21:31:50.547Z,16.67
2022-11-21T21:34:18.397Z,31.88
2022-11-21T21:36:45.098Z,14.05
2022-11-21T21:39:11.788Z,13.70
2022-11-21T21:41:44.479Z,14.05
2022-11-21T21:44:11.763Z,13.88
2022-11-21T21:46:38.432Z,11.43
2022-11-21T21:49:04.942Z,19.35
2022-11-21T21:51:35.172Z,12.98
2022-11-21T21:54:01.598Z,13.15
2022-11-21T21:56:29.270Z,15.50
2022-11-21T21:58:58.899Z,10.60
2022-11-21T22:01:30.760Z,12.63
2022-11-21T22:04:02.916Z,13.52
2022-11-21T22:06:31.305Z,13.48
2022-11-21T22:08:57.748Z,10.98
2022-11-21T22:11:32.560Z,10.98
2022-11-21T22:14:07.935Z,13.98
2022-11-21T22:16:34.610Z,12.85
2022-11-21T22:19:01.174Z,18.02
2022-11-21T22:21:32.951Z,13.05
2022-11-21T22:26:47.684Z,11.35
2022-11-21T22:29:14.121Z,14.65
2022-11-21T22:31:40.655Z,12.48
2022-11-21T22:34:07.127Z,14.15
2022-11-21T22:36:34.029Z,17.63
2022-11-21T22:39:00.618Z,15.48
2022-11-21T22:41:27.646Z,18.42
2022-11-21T22:43:56.904Z,10.68
2022-11-21T22:46:25.560Z,14.50
2022-11-21T22:48:52.079Z,7.32
2022-11-21T22:51:27.106Z,12.57
2022-11-21T22:53:53.646Z,16.50
2022-11-21T22:56:22.444Z,12.48
2022-11-21T22:58:49.691Z,12.07
2022-11-21T23:01:19.136Z,11.68
2022-11-21T23:03:46.197Z,10.93
2022-11-21T23:06:14.792Z,8.35
2022-11-21T23:08:41.749Z,6.90
2022-11-21T23:11:16.874Z,8.27
2022-11-21T23:13:46.437Z,13.02
2022-11-21T23:16:13.754Z,11.65
2022-11-21T23:18:40.925Z,10.77
2022-11-21T23:21:08.741Z,7.47
2022-11-21T23:23:35.817Z,10.55
2022-11-21T23:26:02.922Z,9.88
2022-11-21T23:28:29.631Z,9.73
2022-11-21T23:30:56.092Z,9.77
2022-11-21T23:33:22.828Z,14.43
2022-11-21T23:35:49.463Z,8.52
2022-11-21T23:38:17.811Z,11.63
2022-11-21T23:40:46.125Z,10.10
2022-11-21T23:43:13.641Z,13.13
2022-11-21T23:45:40.123Z,12.00
2022-11-21T23:48:07.799Z,14.57
2022-11-21T23:50:34.443Z,14.80
2022-11-21T23:53:01.063Z,13.90
2022-11-21T23:55:28.403Z,16.48
2022-11-21T23:57:54.961Z,13.43
